sensor_id;sensor_type;location;lat;lon;timestamp;P1;durP1;ratioP1;P2;durP2;ratioP2
20391;SDS011;10355;53.688;10.078;2022-08-19T00:01:39;8.80;;;5.60;;
20391;SDS011;10355;53.688;10.078;2022-08-19T00:04:23;9.85;;;5.82;;
20391;SDS011;10355;53.688;10.078;2022-08-19T00:07:07;9.07;;;5.25;;
20391;SDS011;10355;53.688;10.078;2022-08-19T00:09:49;10.30;;;6.00;;
20391;SDS011;10355;53.688;10.078;2022-08-19T00:12:33;10.75;;;6.35;;
20391;SDS011;10355;53.688;10.078;2022-08-19T00:15:24;7.93;;;5.03;;
20391;SDS011;10355;53.688;10.078;2022-08-19T00:18:08;9.80;;;5.88;;
20391;SDS011;10355;53.688;10.078;2022-08-19T00:20:51;9.13;;;5.45;;
20391;SDS011;10355;53.688;10.078;2022-08-19T00:23:34;9.60;;;5.07;;
20391;SDS011;10355;53.688;10.078;2022-08-19T00:26:17;10.50;;;5.90;;
20391;SDS011;10355;53.688;10.078;2022-08-19T00:29:00;12.35;;;6.65;;
20391;SDS011;10355;53.688;10.078;2022-08-19T00:31:44;14.93;;;7.60;;
20391;SDS011;10355;53.688;10.078;2022-08-19T00:34:29;13.00;;;7.25;;
20391;SDS011;10355;53.688;10.078;2022-08-19T00:37:12;12.30;;;7.25;;
20391;SDS011;10355;53.688;10.078;2022-08-19T00:39:55;13.68;;;6.85;;
20391;SDS011;10355;53.688;10.078;2022-08-19T00:42:38;13.50;;;7.57;;
20391;SDS011;10355;53.688;10.078;2022-08-19T00:45:22;15.68;;;7.85;;
20391;SDS011;10355;53.688;10.078;2022-08-19T00:48:07;13.32;;;7.45;;
20391;SDS011;10355;53.688;10.078;2022-08-19T00:50:56;20.58;;;9.05;;
20391;SDS011;10355;53.688;10.078;2022-08-19T00:53:40;15.88;;;9.02;;
20391;SDS011;10355;53.688;10.078;2022-08-19T00:56:23;15.70;;;8.18;;
20391;SDS011;10355;53.688;10.078;2022-08-19T00:59:08;22.02;;;9.45;;
20391;SDS011;10355;53.688;10.078;2022-08-19T01:01:51;18.98;;;8.98;;
20391;SDS011;10355;53.688;10.078;2022-08-19T01:04:34;16.90;;;9.10;;
20391;SDS011;10355;53.688;10.078;2022-08-19T01:07:19;17.83;;;9.38;;
20391;SDS011;10355;53.688;10.078;2022-08-19T01:10:02;20.73;;;10.05;;
20391;SDS011;10355;53.688;10.078;2022-08-19T01:12:46;18.23;;;8.85;;
20391;SDS011;10355;53.688;10.078;2022-08-19T01:15:30;18.10;;;8.32;;
20391;SDS011;10355;53.688;10.078;2022-08-19T01:18:14;20.67;;;9.68;;
20391;SDS011;10355;53.688;10.078;2022-08-19T01:20:58;19.50;;;10.00;;
20391;SDS011;10355;53.688;10.078;2022-08-19T01:23:43;22.42;;;9.95;;
20391;SDS011;10355;53.688;10.078;2022-08-19T01:26:26;15.82;;;8.93;;
20391;SDS011;10355;53.688;10.078;2022-08-19T01:29:11;16.17;;;8.65;;
20391;SDS011;10355;53.688;10.078;2022-08-19T01:31:55;15.80;;;9.02;;
20391;SDS011;10355;53.688;10.078;2022-08-19T01:34:38;19.15;;;9.63;;
20391;SDS011;10355;53.688;10.078;2022-08-19T01:37:20;16.20;;;8.38;;
20391;SDS011;10355;53.688;10.078;2022-08-19T01:40:10;17.48;;;9.27;;
20391;SDS011;10355;53.688;10.078;2022-08-19T01:42:53;17.13;;;9.13;;
20391;SDS011;10355;53.688;10.078;2022-08-19T01:45:38;16.30;;;8.95;;
20391;SDS011;10355;53.688;10.078;2022-08-19T01:48:21;21.33;;;9.95;;
20391;SDS011;10355;53.688;10.078;2022-08-19T01:51:05;20.48;;;8.40;;
20391;SDS011;10355;53.688;10.078;2022-08-19T01:53:48;19.13;;;9.85;;
20391;SDS011;10355;53.688;10.078;2022-08-19T01:56:32;19.00;;;9.40;;
20391;SDS011;10355;53.688;10.078;2022-08-19T01:59:16;18.27;;;9.07;;
20391;SDS011;10355;53.688;10.078;2022-08-19T02:01:59;19.85;;;9.55;;
20391;SDS011;10355;53.688;10.078;2022-08-19T02:04:42;18.38;;;9.32;;
20391;SDS011;10355;53.688;10.078;2022-08-19T02:07:27;17.95;;;8.80;;
20391;SDS011;10355;53.688;10.078;2022-08-19T02:10:13;16.88;;;8.82;;
20391;SDS011;10355;53.688;10.078;2022-08-19T02:12:58;19.67;;;9.57;;
20391;SDS011;10355;53.688;10.078;2022-08-19T02:15:41;15.50;;;8.10;;
20391;SDS011;10355;53.688;10.078;2022-08-19T02:18:24;15.40;;;8.05;;
20391;SDS011;10355;53.688;10.078;2022-08-19T02:21:15;15.82;;;8.25;;
20391;SDS011;10355;53.688;10.078;2022-08-19T02:23:58;14.90;;;7.47;;
20391;SDS011;10355;53.688;10.078;2022-08-19T02:26:41;13.95;;;7.38;;
20391;SDS011;10355;53.688;10.078;2022-08-19T02:29:25;15.35;;;7.80;;
20391;SDS011;10355;53.688;10.078;2022-08-19T02:32:09;14.98;;;7.18;;
20391;SDS011;10355;53.688;10.078;2022-08-19T02:34:52;14.35;;;7.47;;
20391;SDS011;10355;53.688;10.078;2022-08-19T02:37:35;15.02;;;8.00;;
20391;SDS011;10355;53.688;10.078;2022-08-19T02:40:35;19.00;;;7.88;;
20391;SDS011;10355;53.688;10.078;2022-08-19T02:43:18;16.15;;;7.97;;
20391;SDS011;10355;53.688;10.078;2022-08-19T02:46:10;21.67;;;9.10;;
20391;SDS011;10355;53.688;10.078;2022-08-19T02:49:02;19.52;;;8.93;;
20391;SDS011;10355;53.688;10.078;2022-08-19T02:51:46;19.38;;;9.02;;
20391;SDS011;10355;53.688;10.078;2022-08-19T02:54:29;25.45;;;9.15;;
20391;SDS011;10355;53.688;10.078;2022-08-19T02:57:12;22.48;;;9.18;;
20391;SDS011;10355;53.688;10.078;2022-08-19T02:59:54;17.48;;;7.82;;
20391;SDS011;10355;53.688;10.078;2022-08-19T03:02:39;22.23;;;8.82;;
20391;SDS011;10355;53.688;10.078;2022-08-19T03:05:22;20.92;;;8.90;;
20391;SDS011;10355;53.688;10.078;2022-08-19T03:08:25;21.02;;;8.80;;
20391;SDS011;10355;53.688;10.078;2022-08-19T03:11:16;20.70;;;8.90;;
20391;SDS011;10355;53.688;10.078;2022-08-19T03:14:00;20.38;;;8.80;;
20391;SDS011;10355;53.688;10.078;2022-08-19T03:16:45;17.88;;;8.68;;
20391;SDS011;10355;53.688;10.078;2022-08-19T03:19:30;19.10;;;7.72;;
20391;SDS011;10355;53.688;10.078;2022-08-19T03:22:13;18.35;;;7.88;;
20391;SDS011;10355;53.688;10.078;2022-08-19T03:24:56;14.98;;;7.47;;
20391;SDS011;10355;53.688;10.078;2022-08-19T03:27:40;13.77;;;7.55;;
20391;SDS011;10355;53.688;10.078;2022-08-19T03:30:23;13.95;;;7.13;;
20391;SDS011;10355;53.688;10.078;2022-08-19T03:33:06;11.93;;;6.95;;
20391;SDS011;10355;53.688;10.078;2022-08-19T03:36:00;17.77;;;7.57;;
20391;SDS011;10355;53.688;10.078;2022-08-19T03:38:44;11.93;;;6.82;;
20391;SDS011;10355;53.688;10.078;2022-08-19T03:41:28;12.43;;;6.90;;
20391;SDS011;10355;53.688;10.078;2022-08-19T03:44:25;13.88;;;6.82;;
20391;SDS011;10355;53.688;10.078;2022-08-19T03:47:08;13.48;;;7.03;;
20391;SDS011;10355;53.688;10.078;2022-08-19T03:49:50;15.13;;;6.97;;
20391;SDS011;10355;53.688;10.078;2022-08-19T03:52:35;14.23;;;7.68;;
20391;SDS011;10355;53.688;10.078;2022-08-19T03:55:18;12.68;;;6.68;;
20391;SDS011;10355;53.688;10.078;2022-08-19T03:58:01;15.00;;;7.78;;
20391;SDS011;10355;53.688;10.078;2022-08-19T04:00:44;14.48;;;7.60;;
20391;SDS011;10355;53.688;10.078;2022-08-19T04:03:26;12.18;;;7.30;;
20391;SDS011;10355;53.688;10.078;2022-08-19T04:06:16;15.23;;;7.97;;
20391;SDS011;10355;53.688;10.078;2022-08-19T04:09:02;15.95;;;7.78;;
20391;SDS011;10355;53.688;10.078;2022-08-19T04:11:46;16.63;;;8.55;;
20391;SDS011;10355;53.688;10.078;2022-08-19T04:14:29;14.52;;;8.27;;
20391;SDS011;10355;53.688;10.078;2022-08-19T04:17:13;17.08;;;8.82;;
20391;SDS011;10355;53.688;10.078;2022-08-19T04:19:55;16.50;;;8.40;;
20391;SDS011;10355;53.688;10.078;2022-08-19T04:22:40;18.33;;;8.55;;
20391;SDS011;10355;53.688;10.078;2022-08-19T04:25:25;18.92;;;9.25;;
20391;SDS011;10355;53.688;10.078;2022-08-19T04:28:08;18.10;;;9.13;;
20391;SDS011;10355;53.688;10.078;2022-08-19T04:30:53;23.92;;;8.77;;
20391;SDS011;10355;53.688;10.078;2022-08-19T04:33:36;21.60;;;9.65;;
20391;SDS011;10355;53.688;10.078;2022-08-19T04:36:20;20.10;;;9.20;;
20391;SDS011;10355;53.688;10.078;2022-08-19T04:39:04;19.50;;;9.57;;
20391;SDS011;10355;53.688;10.078;2022-08-19T04:41:49;17.65;;;8.70;;
20391;SDS011;10355;53.688;10.078;2022-08-19T04:44:50;20.10;;;9.77;;
20391;SDS011;10355;53.688;10.078;2022-08-19T04:47:34;20.00;;;10.10;;
20391;SDS011;10355;53.688;10.078;2022-08-19T04:50:39;18.92;;;9.00;;
20391;SDS011;10355;53.688;10.078;2022-08-19T04:53:23;21.95;;;9.35;;
20391;SDS011;10355;53.688;10.078;2022-08-19T04:56:06;19.67;;;9.13;;
20391;SDS011;10355;53.688;10.078;2022-08-19T04:59:02;18.17;;;9.13;;
20391;SDS011;10355;53.688;10.078;2022-08-19T05:01:46;18.75;;;8.80;;
20391;SDS011;10355;53.688;10.078;2022-08-19T05:04:31;20.92;;;9.40;;
20391;SDS011;10355;53.688;10.078;2022-08-19T05:07:15;18.85;;;9.35;;
20391;SDS011;10355;53.688;10.078;2022-08-19T05:09:57;19.48;;;8.40;;
20391;SDS011;10355;53.688;10.078;2022-08-19T05:12:40;16.08;;;8.13;;
20391;SDS011;10355;53.688;10.078;2022-08-19T05:15:25;19.17;;;8.80;;
20391;SDS011;10355;53.688;10.078;2022-08-19T05:18:08;14.82;;;8.45;;
20391;SDS011;10355;53.688;10.078;2022-08-19T05:24:19;19.42;;;8.63;;
20391;SDS011;10355;53.688;10.078;2022-08-19T05:27:02;15.23;;;8.15;;
20391;SDS011;10355;53.688;10.078;2022-08-19T05:29:47;17.55;;;8.45;;
20391;SDS011;10355;53.688;10.078;2022-08-19T05:32:31;14.40;;;7.75;;
20391;SDS011;10355;53.688;10.078;2022-08-19T05:35:14;13.57;;;7.90;;
20391;SDS011;10355;53.688;10.078;2022-08-19T05:37:56;17.90;;;8.13;;
20391;SDS011;10355;53.688;10.078;2022-08-19T05:40:39;16.50;;;7.85;;
20391;SDS011;10355;53.688;10.078;2022-08-19T05:43:22;19.05;;;8.57;;
20391;SDS011;10355;53.688;10.078;2022-08-19T05:46:05;21.52;;;8.80;;
20391;SDS011;10355;53.688;10.078;2022-08-19T05:48:49;18.27;;;8.88;;
20391;SDS011;10355;53.688;10.078;2022-08-19T05:51:35;19.45;;;8.85;;
20391;SDS011;10355;53.688;10.078;2022-08-19T05:54:19;21.23;;;9.48;;
20391;SDS011;10355;53.688;10.078;2022-08-19T05:57:02;17.20;;;8.07;;
20391;SDS011;10355;53.688;10.078;2022-08-19T05:59:49;22.23;;;9.45;;
20391;SDS011;10355;53.688;10.078;2022-08-19T06:02:39;20.48;;;8.85;;
20391;SDS011;10355;53.688;10.078;2022-08-19T06:05:23;19.27;;;9.18;;
20391;SDS011;10355;53.688;10.078;2022-08-19T06:08:06;20.52;;;8.70;;
20391;SDS011;10355;53.688;10.078;2022-08-19T06:10:49;21.13;;;9.50;;
20391;SDS011;10355;53.688;10.078;2022-08-19T06:13:32;18.13;;;8.52;;
20391;SDS011;10355;53.688;10.078;2022-08-19T06:16:17;26.58;;;9.75;;
20391;SDS011;10355;53.688;10.078;2022-08-19T06:19:04;20.63;;;9.52;;
20391;SDS011;10355;53.688;10.078;2022-08-19T06:21:50;25.92;;;10.45;;
20391;SDS011;10355;53.688;10.078;2022-08-19T06:24:33;19.48;;;8.82;;
20391;SDS011;10355;53.688;10.078;2022-08-19T06:27:16;21.48;;;9.50;;
20391;SDS011;10355;53.688;10.078;2022-08-19T06:29:59;21.00;;;9.00;;
20391;SDS011;10355;53.688;10.078;2022-08-19T06:32:42;20.65;;;9.48;;
20391;SDS011;10355;53.688;10.078;2022-08-19T06:35:26;23.48;;;9.43;;
20391;SDS011;10355;53.688;10.078;2022-08-19T06:38:12;21.85;;;8.95;;
20391;SDS011;10355;53.688;10.078;2022-08-19T06:40:59;19.75;;;8.10;;
20391;SDS011;10355;53.688;10.078;2022-08-19T06:43:48;20.95;;;9.02;;
20391;SDS011;10355;53.688;10.078;2022-08-19T06:46:34;18.25;;;8.57;;
20391;SDS011;10355;53.688;10.078;2022-08-19T06:49:20;18.05;;;8.23;;
20391;SDS011;10355;53.688;10.078;2022-08-19T06:52:03;22.40;;;8.40;;
20391;SDS011;10355;53.688;10.078;2022-08-19T06:54:48;23.15;;;10.10;;
20391;SDS011;10355;53.688;10.078;2022-08-19T06:57:37;19.05;;;8.18;;
20391;SDS011;10355;53.688;10.078;2022-08-19T07:00:20;16.92;;;8.30;;
20391;SDS011;10355;53.688;10.078;2022-08-19T07:03:04;18.80;;;8.23;;
20391;SDS011;10355;53.688;10.078;2022-08-19T07:05:49;15.85;;;7.82;;
20391;SDS011;10355;53.688;10.078;2022-08-19T07:08:32;19.67;;;8.65;;
20391;SDS011;10355;53.688;10.078;2022-08-19T07:11:19;16.70;;;7.60;;
20391;SDS011;10355;53.688;10.078;2022-08-19T07:14:04;18.65;;;8.70;;
20391;SDS011;10355;53.688;10.078;2022-08-19T07:16:59;18.40;;;8.98;;
20391;SDS011;10355;53.688;10.078;2022-08-19T07:19:42;18.85;;;8.15;;
20391;SDS011;10355;53.688;10.078;2022-08-19T07:22:27;18.15;;;8.10;;
20391;SDS011;10355;53.688;10.078;2022-08-19T07:25:11;19.00;;;8.18;;
20391;SDS011;10355;53.688;10.078;2022-08-19T07:27:56;20.02;;;8.50;;
20391;SDS011;10355;53.688;10.078;2022-08-19T07:30:41;17.77;;;8.23;;
20391;SDS011;10355;53.688;10.078;2022-08-19T07:33:26;18.90;;;8.70;;
20391;SDS011;10355;53.688;10.078;2022-08-19T07:36:20;18.50;;;8.75;;
20391;SDS011;10355;53.688;10.078;2022-08-19T07:39:08;20.42;;;8.20;;
20391;SDS011;10355;53.688;10.078;2022-08-19T07:41:51;22.67;;;9.65;;
20391;SDS011;10355;53.688;10.078;2022-08-19T07:44:36;19.70;;;9.30;;
20391;SDS011;10355;53.688;10.078;2022-08-19T07:47:24;20.70;;;8.27;;
20391;SDS011;10355;53.688;10.078;2022-08-19T07:53:50;18.92;;;9.50;;
20391;SDS011;10355;53.688;10.078;2022-08-19T07:56:33;17.77;;;8.70;;
20391;SDS011;10355;53.688;10.078;2022-08-19T07:59:16;21.25;;;9.43;;
20391;SDS011;10355;53.688;10.078;2022-08-19T08:02:00;18.65;;;9.35;;
20391;SDS011;10355;53.688;10.078;2022-08-19T08:04:45;22.00;;;8.82;;
20391;SDS011;10355;53.688;10.078;2022-08-19T08:07:45;18.33;;;8.98;;
20391;SDS011;10355;53.688;10.078;2022-08-19T08:10:45;22.48;;;9.15;;
20391;SDS011;10355;53.688;10.078;2022-08-19T08:13:34;20.60;;;8.45;;
20391;SDS011;10355;53.688;10.078;2022-08-19T08:16:22;21.17;;;9.23;;
20391;SDS011;10355;53.688;10.078;2022-08-19T08:19:08;19.70;;;8.70;;
20391;SDS011;10355;53.688;10.078;2022-08-19T08:22:06;23.85;;;9.82;;
20391;SDS011;10355;53.688;10.078;2022-08-19T08:24:49;15.43;;;8.52;;
20391;SDS011;10355;53.688;10.078;2022-08-19T08:27:35;18.67;;;8.90;;
20391;SDS011;10355;53.688;10.078;2022-08-19T08:30:19;19.40;;;8.23;;
20391;SDS011;10355;53.688;10.078;2022-08-19T08:33:02;18.30;;;8.60;;
20391;SDS011;10355;53.688;10.078;2022-08-19T08:35:47;21.52;;;9.40;;
20391;SDS011;10355;53.688;10.078;2022-08-19T08:38:30;21.17;;;8.95;;
20391;SDS011;10355;53.688;10.078;2022-08-19T08:41:22;20.05;;;8.85;;
20391;SDS011;10355;53.688;10.078;2022-08-19T08:44:11;18.33;;;8.95;;
20391;SDS011;10355;53.688;10.078;2022-08-19T08:47:01;20.35;;;9.15;;
20391;SDS011;10355;53.688;10.078;2022-08-19T08:49:49;20.55;;;8.88;;
20391;SDS011;10355;53.688;10.078;2022-08-19T08:52:37;19.08;;;8.15;;
20391;SDS011;10355;53.688;10.078;2022-08-19T08:55:29;24.63;;;8.70;;
20391;SDS011;10355;53.688;10.078;2022-08-19T08:58:24;19.17;;;9.10;;
20391;SDS011;10355;53.688;10.078;2022-08-19T09:01:12;17.65;;;8.57;;
20391;SDS011;10355;53.688;10.078;2022-08-19T09:03:54;19.15;;;8.07;;
20391;SDS011;10355;53.688;10.078;2022-08-19T09:06:44;17.02;;;8.73;;
20391;SDS011;10355;53.688;10.078;2022-08-19T09:09:32;22.00;;;8.82;;
20391;SDS011;10355;53.688;10.078;2022-08-19T09:12:18;20.85;;;8.95;;
20391;SDS011;10355;53.688;10.078;2022-08-19T09:15:08;19.77;;;8.85;;
20391;SDS011;10355;53.688;10.078;2022-08-19T09:17:51;17.63;;;9.00;;
20391;SDS011;10355;53.688;10.078;2022-08-19T09:20:35;24.20;;;9.35;;
20391;SDS011;10355;53.688;10.078;2022-08-19T09:23:22;20.77;;;9.18;;
20391;SDS011;10355;53.688;10.078;2022-08-19T09:26:17;17.08;;;8.95;;
20391;SDS011;10355;53.688;10.078;2022-08-19T09:29:02;15.02;;;7.40;;
20391;SDS011;10355;53.688;10.078;2022-08-19T09:31:47;18.48;;;8.98;;
20391;SDS011;10355;53.688;10.078;2022-08-19T09:34:31;18.70;;;8.75;;
20391;SDS011;10355;53.688;10.078;2022-08-19T09:37:18;23.17;;;9.18;;
20391;SDS011;10355;53.688;10.078;2022-08-19T09:40:01;18.17;;;7.78;;
20391;SDS011;10355;53.688;10.078;2022-08-19T09:42:46;20.42;;;8.73;;
20391;SDS011;10355;53.688;10.078;2022-08-19T09:45:33;19.85;;;9.02;;
20391;SDS011;10355;53.688;10.078;2022-08-19T09:48:16;17.77;;;9.50;;
20391;SDS011;10355;53.688;10.078;2022-08-19T09:51:04;18.60;;;9.15;;
20391;SDS011;10355;53.688;10.078;2022-08-19T09:53:58;20.77;;;9.10;;
20391;SDS011;10355;53.688;10.078;2022-08-19T09:56:45;22.83;;;9.95;;
20391;SDS011;10355;53.688;10.078;2022-08-19T09:59:29;17.13;;;8.57;;
20391;SDS011;10355;53.688;10.078;2022-08-19T10:02:13;20.35;;;8.48;;
20391;SDS011;10355;53.688;10.078;2022-08-19T10:05:04;16.75;;;8.98;;
20391;SDS011;10355;53.688;10.078;2022-08-19T10:08:07;18.33;;;9.45;;
20391;SDS011;10355;53.688;10.078;2022-08-19T10:10:54;17.63;;;9.45;;
20391;SDS011;10355;53.688;10.078;2022-08-19T10:13:39;21.48;;;8.88;;
20391;SDS011;10355;53.688;10.078;2022-08-19T10:16:24;17.92;;;9.30;;
20391;SDS011;10355;53.688;10.078;2022-08-19T10:19:10;18.98;;;9.25;;
20391;SDS011;10355;53.688;10.078;2022-08-19T10:21:54;17.73;;;8.35;;
20391;SDS011;10355;53.688;10.078;2022-08-19T10:24:41;16.52;;;8.70;;
20391;SDS011;10355;53.688;10.078;2022-08-19T10:27:24;15.63;;;8.02;;
20391;SDS011;10355;53.688;10.078;2022-08-19T10:30:07;18.38;;;8.40;;
20391;SDS011;10355;53.688;10.078;2022-08-19T10:32:55;16.27;;;7.82;;
20391;SDS011;10355;53.688;10.078;2022-08-19T10:35:37;16.83;;;7.72;;
20391;SDS011;10355;53.688;10.078;2022-08-19T10:38:37;15.98;;;7.93;;
20391;SDS011;10355;53.688;10.078;2022-08-19T10:41:33;15.13;;;8.23;;
20391;SDS011;10355;53.688;10.078;2022-08-19T10:44:16;16.10;;;8.10;;
20391;SDS011;10355;53.688;10.078;2022-08-19T10:46:59;16.67;;;8.45;;
20391;SDS011;10355;53.688;10.078;2022-08-19T10:49:45;20.30;;;8.27;;
20391;SDS011;10355;53.688;10.078;2022-08-19T10:52:45;14.70;;;7.45;;
20391;SDS011;10355;53.688;10.078;2022-08-19T10:55:31;14.88;;;7.93;;
20391;SDS011;10355;53.688;10.078;2022-08-19T10:58:33;13.55;;;7.38;;
20391;SDS011;10355;53.688;10.078;2022-08-19T11:01:16;12.30;;;7.82;;
20391;SDS011;10355;53.688;10.078;2022-08-19T11:04:00;13.60;;;7.30;;
20391;SDS011;10355;53.688;10.078;2022-08-19T11:06:45;12.95;;;7.60;;
20391;SDS011;10355;53.688;10.078;2022-08-19T11:09:29;11.60;;;6.85;;
20391;SDS011;10355;53.688;10.078;2022-08-19T11:12:14;15.00;;;8.50;;
20391;SDS011;10355;53.688;10.078;2022-08-19T11:14:58;15.77;;;7.82;;
20391;SDS011;10355;53.688;10.078;2022-08-19T11:17:41;14.05;;;7.05;;
20391;SDS011;10355;53.688;10.078;2022-08-19T11:20:25;13.32;;;7.90;;
20391;SDS011;10355;53.688;10.078;2022-08-19T11:23:09;15.05;;;7.70;;
20391;SDS011;10355;53.688;10.078;2022-08-19T11:25:53;12.10;;;6.97;;
20391;SDS011;10355;53.688;10.078;2022-08-19T11:28:36;13.25;;;6.95;;
20391;SDS011;10355;53.688;10.078;2022-08-19T11:31:21;15.68;;;7.70;;
20391;SDS011;10355;53.688;10.078;2022-08-19T11:34:10;16.17;;;7.82;;
20391;SDS011;10355;53.688;10.078;2022-08-19T11:36:54;13.73;;;7.30;;
20391;SDS011;10355;53.688;10.078;2022-08-19T11:39:41;16.10;;;7.72;;
20391;SDS011;10355;53.688;10.078;2022-08-19T11:42:33;12.38;;;6.97;;
20391;SDS011;10355;53.688;10.078;2022-08-19T11:45:33;14.50;;;7.85;;
20391;SDS011;10355;53.688;10.078;2022-08-19T11:48:16;14.90;;;7.25;;
20391;SDS011;10355;53.688;10.078;2022-08-19T11:51:04;12.43;;;6.78;;
20391;SDS011;10355;53.688;10.078;2022-08-19T11:53:54;16.25;;;8.82;;
20391;SDS011;10355;53.688;10.078;2022-08-19T11:56:39;15.40;;;7.93;;
20391;SDS011;10355;53.688;10.078;2022-08-19T11:59:21;11.30;;;6.65;;
20391;SDS011;10355;53.688;10.078;2022-08-19T12:02:05;13.18;;;7.07;;
20391;SDS011;10355;53.688;10.078;2022-08-19T12:04:48;12.20;;;6.70;;
20391;SDS011;10355;53.688;10.078;2022-08-19T12:07:30;11.85;;;7.05;;
20391;SDS011;10355;53.688;10.078;2022-08-19T12:10:15;11.02;;;6.82;;
20391;SDS011;10355;53.688;10.078;2022-08-19T12:13:02;11.82;;;7.20;;
20391;SDS011;10355;53.688;10.078;2022-08-19T12:15:46;11.43;;;6.53;;
20391;SDS011;10355;53.688;10.078;2022-08-19T12:18:28;13.95;;;7.05;;
20391;SDS011;10355;53.688;10.078;2022-08-19T12:21:12;11.85;;;6.90;;
20391;SDS011;10355;53.688;10.078;2022-08-19T12:23:58;11.43;;;6.70;;
20391;SDS011;10355;53.688;10.078;2022-08-19T12:26:41;12.20;;;6.20;;
20391;SDS011;10355;53.688;10.078;2022-08-19T12:29:35;14.45;;;6.45;;
20391;SDS011;10355;53.688;10.078;2022-08-19T12:32:18;12.48;;;6.63;;
20391;SDS011;10355;53.688;10.078;2022-08-19T12:35:01;11.82;;;7.22;;
20391;SDS011;10355;53.688;10.078;2022-08-19T12:37:44;16.98;;;7.65;;
20391;SDS011;10355;53.688;10.078;2022-08-19T12:40:37;14.68;;;7.20;;
20391;SDS011;10355;53.688;10.078;2022-08-19T12:43:21;11.60;;;6.53;;
20391;SDS011;10355;53.688;10.078;2022-08-19T12:46:06;13.75;;;7.47;;
20391;SDS011;10355;53.688;10.078;2022-08-19T12:48:59;12.27;;;6.53;;
20391;SDS011;10355;53.688;10.078;2022-08-19T12:51:55;12.23;;;7.45;;
20391;SDS011;10355;53.688;10.078;2022-08-19T12:54:39;11.35;;;7.00;;
20391;SDS011;10355;53.688;10.078;2022-08-19T12:57:25;11.52;;;6.75;;
20391;SDS011;10355;53.688;10.078;2022-08-19T13:00:15;12.52;;;7.30;;
20391;SDS011;10355;53.688;10.078;2022-08-19T13:03:02;12.13;;;7.53;;
20391;SDS011;10355;53.688;10.078;2022-08-19T13:05:47;14.27;;;7.82;;
20391;SDS011;10355;53.688;10.078;2022-08-19T13:08:31;13.60;;;7.32;;
20391;SDS011;10355;53.688;10.078;2022-08-19T13:11:15;13.63;;;6.43;;
20391;SDS011;10355;53.688;10.078;2022-08-19T13:13:59;12.10;;;7.45;;
20391;SDS011;10355;53.688;10.078;2022-08-19T13:16:41;12.55;;;7.22;;
20391;SDS011;10355;53.688;10.078;2022-08-19T13:19:29;14.02;;;7.18;;
20391;SDS011;10355;53.688;10.078;2022-08-19T13:22:13;13.15;;;7.28;;
20391;SDS011;10355;53.688;10.078;2022-08-19T13:24:56;12.23;;;6.82;;
20391;SDS011;10355;53.688;10.078;2022-08-19T13:27:39;12.50;;;7.03;;
20391;SDS011;10355;53.688;10.078;2022-08-19T13:30:22;10.65;;;6.68;;
20391;SDS011;10355;53.688;10.078;2022-08-19T13:33:23;10.18;;;6.05;;
20391;SDS011;10355;53.688;10.078;2022-08-19T13:36:17;11.25;;;6.63;;
20391;SDS011;10355;53.688;10.078;2022-08-19T13:38:59;11.82;;;7.45;;
20391;SDS011;10355;53.688;10.078;2022-08-19T13:41:43;13.82;;;7.47;;
20391;SDS011;10355;53.688;10.078;2022-08-19T13:44:29;10.43;;;6.57;;
20391;SDS011;10355;53.688;10.078;2022-08-19T13:47:12;15.02;;;7.07;;
20391;SDS011;10355;53.688;10.078;2022-08-19T13:49:56;11.52;;;6.70;;
20391;SDS011;10355;53.688;10.078;2022-08-19T13:52:40;11.27;;;6.82;;
20391;SDS011;10355;53.688;10.078;2022-08-19T13:55:23;11.10;;;6.35;;
20391;SDS011;10355;53.688;10.078;2022-08-19T13:58:06;12.07;;;6.13;;
20391;SDS011;10355;53.688;10.078;2022-08-19T14:00:49;10.30;;;6.82;;
20391;SDS011;10355;53.688;10.078;2022-08-19T14:03:32;11.05;;;7.32;;
20391;SDS011;10355;53.688;10.078;2022-08-19T14:06:15;12.23;;;6.22;;
20391;SDS011;10355;53.688;10.078;2022-08-19T14:09:01;9.40;;;6.00;;
20391;SDS011;10355;53.688;10.078;2022-08-19T14:11:44;8.30;;;5.70;;
20391;SDS011;10355;53.688;10.078;2022-08-19T14:14:28;10.15;;;6.05;;
20391;SDS011;10355;53.688;10.078;2022-08-19T14:17:12;8.30;;;5.63;;
20391;SDS011;10355;53.688;10.078;2022-08-19T14:19:57;11.55;;;5.95;;
20391;SDS011;10355;53.688;10.078;2022-08-19T14:22:51;10.27;;;5.82;;
20391;SDS011;10355;53.688;10.078;2022-08-19T14:25:36;9.02;;;5.43;;
20391;SDS011;10355;53.688;10.078;2022-08-19T14:28:19;7.93;;;5.18;;
20391;SDS011;10355;53.688;10.078;2022-08-19T14:31:13;7.47;;;5.07;;
20391;SDS011;10355;53.688;10.078;2022-08-19T14:33:58;10.60;;;5.60;;
20391;SDS011;10355;53.688;10.078;2022-08-19T14:36:40;11.48;;;5.65;;
20391;SDS011;10355;53.688;10.078;2022-08-19T14:39:25;8.55;;;5.80;;
20391;SDS011;10355;53.688;10.078;2022-08-19T14:42:09;8.07;;;5.60;;
20391;SDS011;10355;53.688;10.078;2022-08-19T14:44:52;11.57;;;6.75;;
20391;SDS011;10355;53.688;10.078;2022-08-19T14:47:35;7.95;;;5.53;;
20391;SDS011;10355;53.688;10.078;2022-08-19T14:50:21;10.95;;;6.10;;
20391;SDS011;10355;53.688;10.078;2022-08-19T14:53:05;10.73;;;6.32;;
20391;SDS011;10355;53.688;10.078;2022-08-19T14:55:53;10.50;;;5.97;;
20391;SDS011;10355;53.688;10.078;2022-08-19T14:58:40;8.73;;;5.53;;
20391;SDS011;10355;53.688;10.078;2022-08-19T15:01:24;9.27;;;6.47;;
20391;SDS011;10355;53.688;10.078;2022-08-19T15:04:08;7.32;;;5.10;;
20391;SDS011;10355;53.688;10.078;2022-08-19T15:06:51;9.98;;;5.93;;
20391;SDS011;10355;53.688;10.078;2022-08-19T15:09:34;8.93;;;5.15;;
20391;SDS011;10355;53.688;10.078;2022-08-19T15:12:18;8.48;;;5.70;;
20391;SDS011;10355;53.688;10.078;2022-08-19T15:15:04;10.50;;;6.13;;
20391;SDS011;10355;53.688;10.078;2022-08-19T15:17:49;9.10;;;6.13;;
20391;SDS011;10355;53.688;10.078;2022-08-19T15:20:34;12.43;;;6.53;;
20391;SDS011;10355;53.688;10.078;2022-08-19T15:23:17;11.15;;;6.22;;
20391;SDS011;10355;53.688;10.078;2022-08-19T15:26:01;9.70;;;6.30;;
20391;SDS011;10355;53.688;10.078;2022-08-19T15:28:45;9.60;;;5.82;;
20391;SDS011;10355;53.688;10.078;2022-08-19T15:31:30;12.35;;;6.18;;
20391;SDS011;10355;53.688;10.078;2022-08-19T15:34:19;10.88;;;7.18;;
20391;SDS011;10355;53.688;10.078;2022-08-19T15:37:03;15.75;;;7.60;;
20391;SDS011;10355;53.688;10.078;2022-08-19T15:39:48;8.35;;;6.47;;
20391;SDS011;10355;53.688;10.078;2022-08-19T15:42:31;14.57;;;7.13;;
20391;SDS011;10355;53.688;10.078;2022-08-19T15:45:21;11.38;;;7.05;;
20391;SDS011;10355;53.688;10.078;2022-08-19T15:48:15;9.82;;;6.88;;
20391;SDS011;10355;53.688;10.078;2022-08-19T15:50:58;11.40;;;6.97;;
20391;SDS011;10355;53.688;10.078;2022-08-19T15:53:41;9.40;;;6.40;;
20391;SDS011;10355;53.688;10.078;2022-08-19T15:56:24;8.90;;;6.82;;
20391;SDS011;10355;53.688;10.078;2022-08-19T15:59:08;9.25;;;6.45;;
20391;SDS011;10355;53.688;10.078;2022-08-19T16:02:22;13.38;;;6.38;;
20391;SDS011;10355;53.688;10.078;2022-08-19T16:05:28;9.50;;;5.90;;
20391;SDS011;10355;53.688;10.078;2022-08-19T16:08:28;14.00;;;6.88;;
20391;SDS011;10355;53.688;10.078;2022-08-19T16:11:15;10.07;;;6.18;;
20391;SDS011;10355;53.688;10.078;2022-08-19T16:14:01;9.82;;;5.85;;
20391;SDS011;10355;53.688;10.078;2022-08-19T16:16:44;7.55;;;5.00;;
20391;SDS011;10355;53.688;10.078;2022-08-19T16:19:28;10.10;;;5.97;;